createdAt,value
2019-05-09T00:01:14.297Z,57.20
2019-05-09T00:03:44.309Z,57.30
2019-05-09T00:06:13.832Z,57.50
2019-05-09T00:08:44.271Z,57.50
2019-05-09T00:11:14.498Z,57.50
2019-05-09T00:13:43.795Z,57.70
2019-05-09T00:16:14.469Z,57.80
2019-05-09T00:18:44.104Z,57.80
2019-05-09T00:21:27.458Z,57.90
2019-05-09T00:23:56.299Z,57.80
2019-05-09T00:26:25.049Z,57.70
2019-05-09T00:29:07.392Z,57.70
2019-05-09T00:31:43.854Z,57.60
2019-05-09T00:34:30.689Z,57.70
2019-05-09T00:36:59.512Z,57.70
2019-05-09T00:39:28.286Z,57.80
2019-05-09T00:41:57.097Z,57.80
2019-05-09T00:44:27.501Z,57.80
2019-05-09T00:47:14.240Z,57.80
2019-05-09T00:49:43.488Z,57.80
2019-05-09T00:52:14.104Z,57.80
2019-05-09T00:54:43.756Z,57.90
2019-05-09T00:57:15.096Z,58.00
2019-05-09T00:59:44.635Z,58.20
2019-05-09T01:02:14.375Z,58.10
2019-05-09T01:04:43.794Z,58.20
2019-05-09T01:07:13.901Z,58.40
2019-05-09T01:09:43.958Z,58.50
2019-05-09T01:12:14.371Z,58.50
2019-05-09T01:14:43.348Z,58.60
2019-05-09T01:17:13.598Z,58.60
2019-05-09T01:19:43.237Z,58.50
2019-05-09T01:22:13.303Z,58.50
2019-05-09T01:24:44.190Z,58.20
2019-05-09T01:27:14.220Z,58.40
2019-05-09T01:29:43.962Z,58.30
2019-05-09T01:32:17.014Z,58.20
2019-05-09T01:34:45.867Z,58.00
2019-05-09T01:37:14.616Z,58.00
2019-05-09T01:39:44.042Z,57.90
2019-05-09T01:42:13.769Z,58.00
2019-05-09T01:44:44.024Z,58.00
2019-05-09T01:47:14.105Z,58.00
2019-05-09T01:49:43.232Z,58.20
2019-05-09T01:52:13.757Z,58.10
2019-05-09T01:54:43.877Z,58.20
2019-05-09T01:57:13.866Z,58.10
2019-05-09T01:59:44.373Z,57.90
2019-05-09T02:02:14.222Z,57.80
2019-05-09T02:04:43.946Z,57.60
2019-05-09T02:07:13.440Z,57.50
2019-05-09T02:09:43.416Z,57.40
2019-05-09T02:12:14.196Z,57.40
2019-05-09T02:14:47.480Z,57.30
2019-05-09T02:17:17.901Z,57.30
2019-05-09T02:19:47.631Z,57.30
2019-05-09T02:22:18.052Z,57.30
2019-05-09T02:24:46.901Z,57.60
2019-05-09T02:27:15.721Z,57.80
2019-05-09T02:29:44.602Z,58.00
2019-05-09T02:32:14.310Z,58.40
2019-05-09T02:34:44.245Z,58.40
2019-05-09T02:37:13.345Z,58.60
2019-05-09T02:39:42.116Z,58.50
2019-05-09T02:42:14.248Z,58.50
2019-05-09T02:44:41.442Z,58.50
2019-05-09T02:47:17.792Z,58.50
2019-05-09T02:49:48.388Z,58.50
2019-05-09T02:52:19.435Z,58.50
2019-05-09T02:54:49.686Z,58.60
2019-05-09T02:57:18.490Z,58.90
2019-05-09T03:00:01.239Z,59.10
2019-05-09T03:02:31.617Z,59.20
2019-05-09T03:05:00.414Z,59.20
2019-05-09T03:07:49.105Z,59.20
2019-05-09T03:10:22.538Z,59.30
2019-05-09T03:12:51.453Z,59.30
2019-05-09T03:15:20.486Z,59.20
2019-05-09T03:17:49.961Z,59.20
2019-05-09T03:20:23.443Z,59.30
2019-05-09T03:22:52.225Z,59.40
2019-05-09T03:25:20.978Z,59.60
2019-05-09T03:27:58.728Z,59.80
2019-05-09T03:30:34.722Z,59.70
2019-05-09T03:33:03.465Z,59.80
2019-05-09T03:35:32.251Z,59.60
2019-05-09T03:38:08.114Z,59.60
2019-05-09T03:40:37.856Z,59.60
2019-05-09T03:43:07.980Z,59.60
2019-05-09T03:45:38.617Z,59.90
2019-05-09T03:48:09.076Z,60.10
2019-05-09T03:50:38.351Z,60.00
2019-05-09T03:53:08.421Z,60.00
2019-05-09T03:55:38.370Z,60.20
2019-05-09T03:58:08.836Z,60.40
2019-05-09T04:00:37.679Z,60.40
2019-05-09T04:03:08.121Z,60.40
2019-05-09T04:05:37.683Z,60.30
2019-05-09T04:08:19.459Z,60.40
2019-05-09T04:10:50.796Z,60.70
2019-05-09T04:13:21.255Z,60.60
2019-05-09T04:15:50.183Z,60.70
2019-05-09T04:18:18.999Z,61.00
2019-05-09T04:20:48.320Z,61.30
2019-05-09T04:23:18.628Z,61.10
2019-05-09T04:25:49.124Z,61.30
2019-05-09T04:28:17.951Z,61.60
2019-05-09T04:30:47.861Z,61.60
2019-05-09T04:33:17.706Z,61.60
2019-05-09T04:35:47.589Z,61.40
2019-05-09T04:38:17.928Z,61.60
2019-05-09T04:40:48.863Z,61.70
2019-05-09T04:43:26.648Z,61.70
2019-05-09T04:45:49.398Z,61.60
2019-05-09T04:48:37.634Z,61.30
2019-05-09T04:51:07.888Z,61.30
2019-05-09T04:53:37.753Z,61.30
2019-05-09T04:56:17.786Z,61.30
2019-05-09T04:58:48.197Z,62.20
2019-05-09T05:01:24.907Z,61.20
2019-05-09T05:03:57.191Z,61.30
2019-05-09T05:06:27.902Z,61.00
2019-05-09T05:08:58.387Z,61.00
2019-05-09T05:11:27.897Z,61.30
2019-05-09T05:13:58.670Z,61.50
2019-05-09T05:16:27.513Z,61.10
2019-05-09T05:18:58.272Z,60.60
2019-05-09T05:21:28.486Z,60.80
2019-05-09T05:23:58.768Z,60.50
2019-05-09T05:26:27.754Z,60.00
2019-05-09T05:28:58.061Z,59.60
2019-05-09T05:31:28.520Z,59.80
2019-05-09T05:34:14.378Z,59.20
2019-05-09T05:36:43.242Z,59.50
2019-05-09T05:39:12.064Z,59.20
2019-05-09T05:41:40.814Z,59.50
2019-05-09T05:44:09.673Z,59.00
2019-05-09T05:46:42.814Z,58.20
2019-05-09T05:49:15.010Z,58.40
2019-05-09T05:51:49.315Z,58.70
2019-05-09T05:54:21.118Z,58.60
2019-05-09T05:56:49.953Z,58.60
2019-05-09T05:59:18.921Z,58.70
2019-05-09T06:01:48.024Z,58.60
2019-05-09T06:04:18.559Z,58.70
2019-05-09T06:06:48.139Z,58.80
2019-05-09T06:09:18.896Z,58.80
2019-05-09T06:11:48.425Z,58.40
2019-05-09T06:14:18.531Z,57.70
2019-05-09T06:16:48.646Z,57.90
2019-05-09T06:19:18.003Z,57.90
2019-05-09T06:21:48.524Z,58.10
2019-05-09T06:24:17.923Z,57.80
2019-05-09T06:26:47.854Z,57.10
2019-05-09T06:29:17.790Z,57.10
2019-05-09T06:31:48.401Z,57.30
2019-05-09T06:34:18.885Z,57.50
2019-05-09T06:36:48.945Z,57.50
2019-05-09T06:39:18.096Z,57.50
2019-05-09T06:41:48.337Z,57.50
2019-05-09T06:44:20.747Z,57.10
2019-05-09T06:46:53.826Z,57.00
2019-05-09T06:49:28.416Z,56.40
2019-05-09T06:51:54.709Z,55.60
2019-05-09T06:54:23.491Z,54.70
2019-05-09T06:56:52.245Z,54.30
2019-05-09T06:59:21.077Z,54.20
2019-05-09T07:02:00.852Z,54.20
2019-05-09T07:04:34.046Z,54.70
2019-05-09T07:07:17.678Z,54.80
2019-05-09T07:09:58.639Z,54.30
2019-05-09T07:12:27.483Z,54.40
2019-05-09T07:14:58.097Z,55.20
2019-05-09T07:17:31.875Z,54.80
2019-05-09T07:19:58.930Z,54.90
2019-05-09T07:25:24.539Z,55.10
2019-05-09T07:27:53.397Z,55.20
2019-05-09T07:30:39.360Z,54.90
2019-05-09T07:33:12.735Z,54.90
2019-05-09T07:35:42.546Z,53.90
2019-05-09T07:38:11.345Z,54.20
2019-05-09T07:40:40.130Z,54.70
2019-05-09T07:43:09.054Z,54.30
2019-05-09T07:45:38.489Z,54.10
2019-05-09T07:48:07.733Z,53.70
2019-05-09T07:50:38.884Z,54.10
2019-05-09T07:53:08.789Z,54.10
2019-05-09T07:55:38.012Z,54.10
2019-05-09T07:58:28.385Z,54.30
2019-05-09T08:01:00.966Z,53.40
2019-05-09T08:03:27.738Z,52.40
2019-05-09T08:05:58.007Z,52.70
2019-05-09T08:08:27.803Z,52.70
2019-05-09T08:10:58.450Z,52.00
2019-05-09T08:13:29.006Z,51.60
2019-05-09T08:15:58.559Z,50.80
2019-05-09T08:18:28.171Z,51.60
2019-05-09T08:20:57.779Z,51.40
2019-05-09T08:23:27.399Z,52.00
2019-05-09T08:25:57.968Z,53.00
2019-05-09T08:28:28.138Z,52.60
2019-05-09T08:30:58.579Z,52.90
2019-05-09T08:33:28.725Z,52.50
2019-05-09T08:35:58.547Z,52.60
2019-05-09T08:38:28.587Z,52.30
2019-05-09T08:41:10.345Z,51.70
2019-05-09T08:43:40.258Z,51.80
2019-05-09T08:46:09.484Z,51.70
2019-05-09T08:48:38.440Z,52.20
2019-05-09T08:51:09.190Z,51.30
2019-05-09T08:53:38.133Z,51.00
2019-05-09T08:56:09.009Z,50.10
2019-05-09T08:58:38.178Z,49.80
2019-05-09T09:01:09.927Z,48.80
2019-05-09T09:03:37.885Z,49.10
2019-05-09T09:06:08.331Z,49.10
2019-05-09T09:08:38.035Z,47.20
2019-05-09T09:11:08.630Z,47.70
2019-05-09T09:13:37.916Z,47.00
2019-05-09T09:16:15.719Z,46.30
2019-05-09T09:18:38.735Z,45.40
2019-05-09T09:21:08.206Z,44.70
2019-05-09T09:23:44.028Z,45.30
2019-05-09T09:26:08.175Z,45.80
2019-05-09T09:28:37.955Z,46.00
2019-05-09T09:31:08.170Z,46.40
2019-05-09T09:33:37.781Z,46.30
2019-05-09T09:36:08.761Z,46.00
2019-05-09T09:38:37.618Z,46.10
2019-05-09T09:41:07.963Z,46.50
2019-05-09T09:43:38.407Z,46.50
2019-05-09T09:46:14.368Z,46.60
2019-05-09T09:48:38.961Z,45.60
2019-05-09T09:51:08.354Z,45.70
2019-05-09T09:53:38.515Z,45.90
2019-05-09T09:56:08.691Z,45.40
2019-05-09T09:58:38.034Z,45.20
2019-05-09T10:01:28.801Z,44.90
2019-05-09T10:04:19.442Z,44.40
2019-05-09T10:06:43.845Z,45.20
2019-05-09T10:09:12.671Z,46.00
2019-05-09T10:11:41.416Z,46.40
2019-05-09T10:14:11.846Z,46.50
2019-05-09T10:16:58.856Z,45.80
2019-05-09T10:19:35.106Z,45.90
2019-05-09T10:22:05.623Z,45.70
2019-05-09T10:24:34.439Z,46.10
2019-05-09T10:27:08.677Z,46.10
2019-05-09T10:29:38.881Z,45.70
2019-05-09T10:32:09.238Z,45.40
2019-05-09T10:34:38.026Z,45.90
2019-05-09T10:37:07.689Z,46.30
2019-05-09T10:39:38.091Z,46.50
2019-05-09T10:42:28.630Z,45.90
2019-05-09T10:44:59.167Z,45.70
2019-05-09T10:47:29.606Z,45.50
2019-05-09T10:49:58.435Z,44.80
2019-05-09T10:52:28.307Z,45.10
2019-05-09T10:54:58.052Z,45.40
2019-05-09T10:57:31.844Z,44.90
2019-05-09T10:59:58.089Z,43.70
2019-05-09T11:02:27.920Z,44.40
2019-05-09T11:04:57.681Z,44.60
2019-05-09T11:07:28.872Z,44.20
2019-05-09T11:09:58.804Z,44.50
2019-05-09T11:12:27.719Z,43.10
2019-05-09T11:14:59.490Z,42.30
2019-05-09T11:17:28.608Z,43.50
2019-05-09T11:19:58.766Z,43.10
2019-05-09T11:22:29.163Z,44.20
2019-05-09T11:24:58.295Z,44.00
2019-05-09T11:27:29.289Z,43.50
2019-05-09T11:29:58.284Z,43.10
2019-05-09T11:32:27.886Z,42.00
2019-05-09T11:34:57.570Z,43.10
2019-05-09T11:37:26.721Z,43.00
2019-05-09T11:39:57.853Z,42.60
2019-05-09T11:42:28.327Z,42.30
2019-05-09T11:44:58.029Z,41.80
2019-05-09T11:47:37.582Z,42.30
2019-05-09T11:49:58.085Z,41.90
2019-05-09T11:52:28.863Z,41.40
2019-05-09T11:54:58.091Z,41.30
2019-05-09T11:57:28.687Z,40.60
2019-05-09T11:59:57.951Z,39.90
2019-05-09T12:02:27.930Z,40.10
2019-05-09T12:04:56.876Z,40.90
2019-05-09T12:07:25.662Z,41.70
2019-05-09T12:09:54.878Z,41.80
2019-05-09T12:12:23.738Z,41.70
2019-05-09T12:14:52.561Z,41.40
2019-05-09T12:17:21.408Z,40.60
2019-05-09T12:19:50.285Z,38.60
2019-05-09T12:22:19.400Z,37.80
2019-05-09T12:24:48.607Z,37.60
2019-05-09T12:27:18.908Z,37.80
2019-05-09T12:29:48.417Z,38.80
2019-05-09T12:32:18.606Z,38.90
2019-05-09T12:34:48.042Z,38.90
2019-05-09T12:37:18.519Z,39.00
2019-05-09T12:39:48.731Z,38.30
2019-05-09T12:42:18.515Z,38.50
2019-05-09T12:44:49.605Z,39.70
2019-05-09T12:47:19.175Z,39.20
2019-05-09T12:49:48.785Z,38.70
2019-05-09T12:52:18.595Z,38.70
2019-05-09T12:54:48.373Z,38.10
2019-05-09T12:57:19.221Z,38.10
2019-05-09T12:59:52.351Z,37.70
2019-05-09T13:02:18.168Z,38.10
2019-05-09T13:04:47.654Z,38.10
2019-05-09T13:07:16.590Z,37.20
2019-05-09T13:09:45.388Z,35.50
2019-05-09T13:12:14.314Z,36.40
2019-05-09T13:14:43.072Z,36.20
2019-05-09T13:17:13.472Z,36.60
2019-05-09T13:19:43.905Z,36.70
2019-05-09T13:22:12.666Z,36.50
2019-05-09T13:24:41.487Z,36.70
2019-05-09T13:27:10.306Z,37.50
2019-05-09T13:29:39.168Z,36.30
2019-05-09T13:32:08.854Z,35.80
2019-05-09T13:34:38.152Z,35.10
2019-05-09T13:37:09.051Z,33.90
2019-05-09T13:39:39.653Z,33.60
2019-05-09T13:42:08.356Z,32.70
2019-05-09T13:44:41.348Z,32.80
2019-05-09T13:47:10.664Z,32.30
2019-05-09T13:49:39.682Z,32.60
2019-05-09T13:52:10.161Z,33.40
2019-05-09T13:54:39.135Z,33.70
2019-05-09T13:57:08.797Z,33.60
2019-05-09T13:59:37.654Z,34.60
2019-05-09T14:02:06.420Z,35.30
2019-05-09T14:04:35.290Z,35.40
2019-05-09T14:07:04.047Z,36.00
2019-05-09T14:09:32.880Z,35.20
2019-05-09T14:12:01.640Z,35.30
2019-05-09T14:14:30.414Z,35.70
2019-05-09T14:16:59.460Z,35.10
2019-05-09T14:19:40.017Z,35.70
2019-05-09T14:21:58.913Z,35.70
2019-05-09T14:24:28.054Z,35.30
2019-05-09T14:26:58.177Z,35.60
2019-05-09T14:29:31.397Z,36.30
2019-05-09T14:31:57.662Z,36.00
2019-05-09T14:34:26.566Z,36.20
2019-05-09T14:36:58.408Z,36.60
2019-05-09T14:39:27.657Z,36.60
2019-05-09T14:41:57.854Z,37.50
2019-05-09T14:44:27.759Z,37.10
2019-05-09T14:46:58.362Z,37.00
2019-05-09T14:49:39.735Z,36.70
2019-05-09T14:51:58.337Z,36.50
2019-05-09T14:54:28.850Z,36.50
2019-05-09T14:56:58.353Z,37.10
2019-05-09T14:59:28.639Z,37.40
2019-05-09T15:01:59.097Z,37.10
2019-05-09T15:04:28.150Z,37.40
2019-05-09T15:06:57.875Z,37.30
2019-05-09T15:09:28.432Z,36.20
2019-05-09T15:11:58.482Z,36.40
2019-05-09T15:14:28.928Z,36.40
2019-05-09T15:16:57.872Z,36.80
2019-05-09T15:19:28.790Z,37.00
2019-05-09T15:22:00.435Z,37.80
2019-05-09T15:24:28.635Z,38.40
2019-05-09T15:26:58.083Z,38.60
2019-05-09T15:29:29.031Z,38.00
2019-05-09T15:32:05.425Z,38.20
2019-05-09T15:34:28.622Z,39.00
2019-05-09T15:36:58.339Z,38.60
2019-05-09T15:39:27.723Z,38.90
2019-05-09T15:41:57.979Z,38.40
2019-05-09T15:44:26.952Z,38.20
2019-05-09T15:47:12.644Z,38.70
2019-05-09T15:49:41.403Z,39.10
2019-05-09T15:52:10.260Z,39.50
2019-05-09T15:54:40.732Z,39.50
2019-05-09T15:57:09.539Z,39.20
2019-05-09T15:59:38.949Z,39.30
2019-05-09T16:02:09.080Z,39.70
2019-05-09T16:04:40.202Z,40.20
2019-05-09T16:07:08.946Z,40.30
2019-05-09T16:09:37.938Z,40.70
2019-05-09T16:12:07.774Z,41.00
2019-05-09T16:14:38.070Z,41.30
2019-05-09T16:17:07.839Z,40.50
2019-05-09T16:19:37.790Z,40.50
2019-05-09T16:22:07.992Z,40.80
2019-05-09T16:24:38.057Z,40.90
2019-05-09T16:27:08.489Z,40.70
2019-05-09T16:29:38.335Z,40.80
2019-05-09T16:32:08.845Z,41.00
2019-05-09T16:34:38.722Z,41.20
2019-05-09T16:37:07.760Z,41.10
2019-05-09T16:39:37.850Z,41.50
2019-05-09T16:42:06.782Z,41.80
2019-05-09T16:44:37.564Z,42.10
2019-05-09T16:47:08.232Z,42.50
2019-05-09T16:49:38.756Z,43.10
2019-05-09T16:52:07.533Z,43.30
2019-05-09T16:54:38.756Z,43.20
2019-05-09T16:57:08.308Z,43.40
2019-05-09T16:59:38.832Z,43.50
2019-05-09T17:02:18.886Z,43.50
2019-05-09T17:04:38.724Z,44.10
2019-05-09T17:07:08.414Z,43.30
2019-05-09T17:09:40.273Z,43.40
2019-05-09T17:12:09.099Z,43.30
2019-05-09T17:14:37.931Z,43.40
2019-05-09T17:17:08.551Z,43.60
2019-05-09T17:19:37.793Z,43.60
2019-05-09T17:22:17.480Z,43.70
2019-05-09T17:24:48.355Z,43.90
2019-05-09T17:27:18.852Z,43.90
2019-05-09T17:29:48.063Z,44.30
2019-05-09T17:32:18.267Z,44.40
2019-05-09T17:34:47.676Z,44.50
2019-05-09T17:37:17.730Z,44.60
2019-05-09T17:39:46.813Z,44.60
2019-05-09T17:42:18.092Z,44.70
2019-05-09T17:44:48.590Z,44.90
2019-05-09T17:47:17.499Z,45.00
2019-05-09T17:49:48.214Z,45.10
2019-05-09T17:52:18.300Z,45.30
2019-05-09T17:54:48.563Z,45.50
2019-05-09T17:57:18.767Z,45.70
2019-05-09T17:59:48.797Z,46.10
2019-05-09T18:02:17.868Z,46.40
2019-05-09T18:04:48.036Z,46.50
2019-05-09T18:07:17.996Z,46.60
2019-05-09T18:09:48.414Z,46.90
2019-05-09T18:12:18.990Z,46.80
2019-05-09T18:14:47.963Z,46.50
2019-05-09T18:17:17.949Z,47.30
2019-05-09T18:19:46.988Z,47.40
2019-05-09T18:22:15.842Z,47.70
2019-05-09T18:24:44.727Z,47.80
2019-05-09T18:27:13.477Z,47.80
2019-05-09T18:29:42.277Z,47.80
2019-05-09T18:32:12.685Z,47.80
2019-05-09T18:34:41.540Z,47.80
2019-05-09T18:37:10.381Z,47.90
2019-05-09T18:39:39.236Z,47.90
2019-05-09T18:42:08.666Z,48.10
2019-05-09T18:44:37.692Z,48.30
2019-05-09T18:47:07.783Z,48.40
2019-05-09T18:49:36.719Z,48.50
2019-05-09T18:52:05.618Z,49.00
2019-05-09T18:54:34.409Z,49.20
2019-05-09T18:57:03.180Z,49.70
2019-05-09T18:59:32.044Z,50.20
2019-05-09T19:02:00.800Z,50.30
2019-05-09T19:04:29.593Z,50.30
2019-05-09T19:06:58.416Z,50.20
2019-05-09T19:09:27.266Z,50.00
2019-05-09T19:11:56.015Z,50.20
2019-05-09T19:14:24.887Z,51.20
2019-05-09T19:17:01.354Z,51.50
2019-05-09T19:19:40.735Z,51.60
2019-05-09T19:22:21.417Z,51.50
2019-05-09T19:24:40.118Z,51.60
2019-05-09T19:27:09.219Z,51.50
2019-05-09T19:29:38.057Z,51.40
2019-05-09T19:32:06.905Z,51.90
2019-05-09T19:34:35.697Z,52.00
2019-05-09T19:37:04.507Z,52.20
2019-05-09T19:39:33.330Z,52.30
2019-05-09T19:42:02.188Z,52.10
2019-05-09T19:44:31.033Z,52.00
2019-05-09T19:47:01.766Z,51.40
2019-05-09T19:49:30.364Z,51.20
2019-05-09T19:51:59.116Z,52.00
2019-05-09T19:54:27.949Z,53.30
2019-05-09T19:56:56.814Z,53.30
2019-05-09T19:59:25.567Z,54.10
2019-05-09T20:01:54.339Z,54.70
2019-05-09T20:04:23.240Z,54.80
2019-05-09T20:06:52.005Z,56.30
2019-05-09T20:09:28.419Z,56.60
2019-05-09T20:12:01.598Z,56.90
2019-05-09T20:14:31.991Z,57.00
2019-05-09T20:17:00.865Z,57.40
2019-05-09T20:19:29.640Z,57.60
2019-05-09T20:21:58.393Z,57.90
2019-05-09T20:24:27.243Z,58.80
2019-05-09T20:26:56.082Z,58.90
2019-05-09T20:29:24.833Z,59.20
2019-05-09T20:31:53.647Z,59.80
2019-05-09T20:34:22.500Z,59.50
2019-05-09T20:36:51.363Z,59.20
2019-05-09T20:39:20.393Z,59.40
2019-05-09T20:41:49.323Z,59.40
2019-05-09T20:44:18.348Z,59.30
2019-05-09T20:46:47.411Z,59.60
2019-05-09T20:49:16.402Z,60.50
2019-05-09T20:51:45.354Z,60.70
2019-05-09T20:54:20.929Z,61.30
2019-05-09T20:56:44.996Z,62.00
2019-05-09T20:59:14.008Z,62.70
2019-05-09T21:01:43.065Z,62.50
2019-05-09T21:04:12.064Z,62.30
2019-05-09T21:06:41.093Z,62.70
2019-05-09T21:09:10.085Z,63.00
2019-05-09T21:11:39.077Z,63.90
2019-05-09T21:14:08.043Z,63.90
2019-05-09T21:16:37.099Z,64.40
2019-05-09T21:19:06.126Z,64.70
2019-05-09T21:21:35.147Z,65.80
2019-05-09T21:24:04.213Z,65.70
2019-05-09T21:26:33.156Z,65.60
2019-05-09T21:29:02.197Z,65.20
2019-05-09T21:31:31.269Z,65.80
2019-05-09T21:34:00.293Z,65.80
2019-05-09T21:36:29.112Z,65.60
2019-05-09T21:38:57.919Z,65.80
2019-05-09T21:41:26.735Z,65.90
2019-05-09T21:43:55.567Z,65.70
2019-05-09T21:46:24.450Z,65.50
2019-05-09T21:48:53.222Z,65.50
2019-05-09T21:51:22.061Z,65.40
2019-05-09T21:53:50.874Z,65.40
2019-05-09T21:56:20.104Z,65.20
2019-05-09T21:58:48.874Z,65.70
2019-05-09T22:01:19.535Z,65.50
2019-05-09T22:03:48.461Z,65.60
2019-05-09T22:06:17.289Z,65.60
2019-05-09T22:08:46.169Z,65.60
2019-05-09T22:11:15.005Z,65.50
2019-05-09T22:13:43.853Z,65.50
2019-05-09T22:16:12.709Z,65.50
2019-05-09T22:18:41.537Z,65.50
2019-05-09T22:21:11.941Z,65.60
2019-05-09T22:23:55.148Z,65.80
2019-05-09T22:26:11.406Z,65.70
2019-05-09T22:28:40.185Z,66.00
2019-05-09T22:31:09.040Z,65.80
2019-05-09T22:33:37.870Z,66.00
2019-05-09T22:36:06.712Z,66.70
2019-05-09T22:38:35.517Z,65.80
2019-05-09T22:41:04.296Z,65.80
2019-05-09T22:43:33.125Z,65.90
2019-05-09T22:46:01.987Z,65.80
2019-05-09T22:48:30.798Z,66.00
2019-05-09T22:50:59.560Z,66.40
2019-05-09T22:53:28.343Z,66.60
2019-05-09T22:55:57.104Z,66.80
2019-05-09T22:58:25.924Z,67.10
2019-05-09T23:00:54.775Z,68.00
2019-05-09T23:03:23.610Z,67.50
2019-05-09T23:05:52.653Z,67.70
2019-05-09T23:08:21.538Z,67.70
2019-05-09T23:10:53.421Z,68.00
2019-05-09T23:13:20.799Z,68.00
2019-05-09T23:15:49.683Z,68.20
2019-05-09T23:18:18.566Z,68.20
2019-05-09T23:20:48.979Z,68.30
2019-05-09T23:23:22.333Z,68.30
2019-05-09T23:25:51.082Z,68.30
2019-05-09T23:28:19.892Z,69.10
2019-05-09T23:30:50.297Z,68.20
2019-05-09T23:33:19.620Z,68.20
2019-05-09T23:35:48.501Z,68.20
2019-05-09T23:38:17.292Z,68.30
2019-05-09T23:40:46.038Z,68.30
2019-05-09T23:43:14.821Z,68.30
2019-05-09T23:45:43.935Z,68.40
2019-05-09T23:48:12.851Z,68.60
2019-05-09T23:50:41.783Z,68.60
2019-05-09T23:53:10.669Z,68.60
2019-05-09T23:55:56.923Z,68.60
2019-05-09T23:58:43.367Z,68.80
